VH80 CYXU-CYXU
Flight info
| Callsign | VH80 |
|---|---|
| Flight time | 0h 0m |
| Altitude | 1900 |
| Route | CYXU/27 CIRCUITS |
| Aircraft | F18 |
Departure
| Time | 2026-05-05 21:20 |
|---|---|
| Airport | London International Airport (CYXU) |
Arrival
| Time | 2026-05-05 21:20 |
|---|---|
| Airport | London International Airport (CYXU) |
| Time | Latitude | Longitude | Altitude | Speed | Heading |
|---|---|---|---|---|---|
| 2026-05-05 21:07 | 43.03572 | -81.16431 | 908 ft | 0 kts | 333° |
| 2026-05-05 21:10 | 43.03573 | -81.16431 | 908 ft | 4 kts | 333° |
| 2026-05-05 21:10 | 43.03618 | -81.16362 | 909 ft | 10 kts | 85° |
| 2026-05-05 21:10 | 43.03623 | -81.16315 | 908 ft | 0 kts | 80° |
| 2026-05-05 21:11 | 43.03623 | -81.16312 | 908 ft | 5 kts | 80° |
| 2026-05-05 21:11 | 43.03658 | -81.16067 | 904 ft | 25 kts | 79° |
| 2026-05-05 21:11 | 43.03694 | -81.15830 | 901 ft | 26 kts | 81° |
| 2026-05-05 21:11 | 43.03642 | -81.15619 | 901 ft | 24 kts | 138° |
| 2026-05-05 21:12 | 43.03514 | -81.15463 | 902 ft | 24 kts | 137° |
| 2026-05-05 21:12 | 43.03396 | -81.15319 | 903 ft | 23 kts | 139° |
| 2026-05-05 21:12 | 43.03277 | -81.15179 | 903 ft | 22 kts | 140° |
| 2026-05-05 21:12 | 43.03152 | -81.15031 | 899 ft | 28 kts | 137° |
| 2026-05-05 21:13 | 43.03006 | -81.14859 | 897 ft | 13 kts | 138° |
| 2026-05-05 21:13 | 43.03002 | -81.14854 | 897 ft | 0 kts | 138° |
| 2026-05-05 21:13 | 43.03000 | -81.14852 | 897 ft | 4 kts | 138° |
| 2026-05-05 21:14 | 43.02895 | -81.14720 | 899 ft | 18 kts | 130° |
| 2026-05-05 21:14 | 43.02900 | -81.14627 | 898 ft | 0 kts | 38° |
| 2026-05-05 21:14 | 43.02887 | -81.14670 | 899 ft | 15 kts | 248° |
| 2026-05-05 21:14 | 43.02939 | -81.14775 | 897 ft | 15 kts | 319° |
| 2026-05-05 21:15 | 43.03084 | -81.14948 | 899 ft | 30 kts | 319° |
| 2026-05-05 21:15 | 43.03236 | -81.15130 | 901 ft | 27 kts | 318° |
| 2026-05-05 21:15 | 43.03323 | -81.15112 | 904 ft | 22 kts | 46° |
| 2026-05-05 21:15 | 43.03429 | -81.14970 | 907 ft | 21 kts | 45° |
| 2026-05-05 21:16 | 43.03526 | -81.14839 | 908 ft | 18 kts | 43° |
| 2026-05-05 21:16 | 43.03617 | -81.14716 | 907 ft | 19 kts | 44° |
| 2026-05-05 21:16 | 43.03734 | -81.14560 | 906 ft | 23 kts | 43° |
| 2026-05-05 21:16 | 43.03835 | -81.14426 | 902 ft | 16 kts | 45° |
| 2026-05-05 21:17 | 43.03925 | -81.14436 | 901 ft | 14 kts | 339° |
| 2026-05-05 21:17 | 43.03941 | -81.14444 | 901 ft | 0 kts | 339° |
| 2026-05-05 21:18 | 43.03941 | -81.14445 | 901 ft | 0 kts | 339° |
| 2026-05-05 21:19 | 43.04034 | -81.14493 | 901 ft | 19 kts | 334° |
| 2026-05-05 21:19 | 43.04060 | -81.14589 | 902 ft | 0 kts | 256° |
| 2026-05-05 21:19 | 43.04050 | -81.14662 | 901 ft | 65 kts | 259° |
| 2026-05-05 21:19 | 43.03828 | -81.16393 | 1197 ft | 257 kts | 261° |
| 2026-05-05 21:20 | 43.03058 | -81.18094 | 2081 ft | 187 kts | 168° |
| 2026-05-05 21:20 | 43.02637 | -81.17396 | 909 ft | 13 kts | 312° |